CTV553 WADD-WAAA
Flight info
| Callsign | CTV553 |
|---|---|
| Flight time | 0h 52m |
| Altitude | 31000 |
| Route | PEDET W41 LIPOT |
| Aircraft | A320/M-SDE3FGHIRWY/LB1 |
Departure
| Time | 2026-04-22 12:34 |
|---|---|
| Airport | Denpasar I Gusti Ngurah Rai International Airport (WADD) |
Arrival
| Time | 2026-04-22 13:27 |
|---|---|
| Airport | Sultan Hasanuddin International Airport (WAAA) |
| Time | Latitude | Longitude | Altitude | Speed | Heading |
|---|---|---|---|---|---|
| 2026-04-22 12:10 | -8.74549 | 115.16932 | 22 ft | 0 kts | 358° |
| 2026-04-22 12:11 | -8.74543 | 115.16998 | 22 ft | 0 kts | 358° |
| 2026-04-22 12:25 | -8.74547 | 115.16998 | 22 ft | 2 kts | 358° |
| 2026-04-22 12:25 | -8.74561 | 115.16999 | 22 ft | 2 kts | 358° |
| 2026-04-22 12:25 | -8.74576 | 115.17000 | 22 ft | 2 kts | 358° |
| 2026-04-22 12:25 | -8.74591 | 115.17000 | 22 ft | 2 kts | 358° |
| 2026-04-22 12:26 | -8.74606 | 115.17001 | 22 ft | 2 kts | 358° |
| 2026-04-22 12:26 | -8.74621 | 115.17001 | 22 ft | 2 kts | 358° |
| 2026-04-22 12:26 | -8.74636 | 115.17001 | 22 ft | 2 kts | 358° |
| 2026-04-22 12:26 | -8.74651 | 115.17002 | 22 ft | 2 kts | 358° |
| 2026-04-22 12:27 | -8.74661 | 115.17002 | 22 ft | 2 kts | 358° |
| 2026-04-22 12:27 | -8.74674 | 115.17008 | 22 ft | 2 kts | 310° |
| 2026-04-22 12:27 | -8.74680 | 115.17021 | 22 ft | 1 kts | 273° |
| 2026-04-22 12:27 | -8.74680 | 115.17027 | 22 ft | 1 kts | 264° |
| 2026-04-22 12:28 | -8.74680 | 115.17030 | 22 ft | 0 kts | 266° |
| 2026-04-22 12:29 | -8.74680 | 115.17020 | 22 ft | 3 kts | 268° |
| 2026-04-22 12:29 | -8.74682 | 115.16972 | 22 ft | 9 kts | 268° |
| 2026-04-22 12:30 | -8.74691 | 115.16775 | 22 ft | 15 kts | 267° |
| 2026-04-22 12:30 | -8.74696 | 115.16661 | 22 ft | 15 kts | 268° |
| 2026-04-22 12:30 | -8.74699 | 115.16571 | 22 ft | 9 kts | 267° |
| 2026-04-22 12:31 | -8.74704 | 115.16489 | 22 ft | 13 kts | 267° |
| 2026-04-22 12:31 | -8.74709 | 115.16375 | 22 ft | 18 kts | 267° |
| 2026-04-22 12:31 | -8.74716 | 115.16226 | 22 ft | 23 kts | 266° |
| 2026-04-22 12:31 | -8.74724 | 115.16052 | 22 ft | 26 kts | 267° |
| 2026-04-22 12:32 | -8.74732 | 115.15879 | 22 ft | 23 kts | 268° |
| 2026-04-22 12:32 | -8.74743 | 115.15617 | 22 ft | 18 kts | 267° |
| 2026-04-22 12:32 | -8.74749 | 115.15498 | 22 ft | 14 kts | 267° |
| 2026-04-22 12:33 | -8.74770 | 115.15414 | 22 ft | 11 kts | 221° |
| 2026-04-22 12:33 | -8.74845 | 115.15398 | 22 ft | 11 kts | 178° |
| 2026-04-22 12:33 | -8.74913 | 115.15404 | 22 ft | 7 kts | 149° |
| 2026-04-22 12:33 | -8.74918 | 115.15447 | 22 ft | 7 kts | 85° |
| 2026-04-22 12:34 | -8.74906 | 115.15683 | 22 ft | 71 kts | 87° |
| 2026-04-22 12:34 | -8.74872 | 115.16436 | 22 ft | 140 kts | 87° |
| 2026-04-22 12:34 | -8.74823 | 115.17569 | 192 ft | 177 kts | 86° |
| 2026-04-22 12:34 | -8.74783 | 115.18825 | 897 ft | 179 kts | 86° |
| 2026-04-22 12:35 | -8.74728 | 115.20091 | 1613 ft | 186 kts | 86° |
| 2026-04-22 12:35 | -8.74672 | 115.21430 | 2162 ft | 201 kts | 86° |
| 2026-04-22 12:35 | -8.74610 | 115.22891 | 2676 ft | 215 kts | 86° |
| 2026-04-22 12:35 | -8.74544 | 115.24478 | 3156 ft | 235 kts | 87° |
| 2026-04-22 12:36 | -8.74474 | 115.26202 | 3701 ft | 254 kts | 87° |
| 2026-04-22 12:36 | -8.74394 | 115.28216 | 4495 ft | 265 kts | 87° |
| 2026-04-22 12:36 | -8.74312 | 115.30250 | 5497 ft | 268 kts | 87° |
| 2026-04-22 12:36 | -8.74227 | 115.32329 | 6508 ft | 272 kts | 86° |
| 2026-04-22 12:37 | -8.74140 | 115.34423 | 7489 ft | 276 kts | 86° |
| 2026-04-22 12:37 | -8.74050 | 115.36560 | 8472 ft | 280 kts | 86° |
| 2026-04-22 12:37 | -8.73959 | 115.38729 | 9444 ft | 284 kts | 86° |
| 2026-04-22 12:37 | -8.73867 | 115.40909 | 10406 ft | 288 kts | 86° |
| 2026-04-22 12:38 | -8.73767 | 115.43207 | 11081 ft | 302 kts | 86° |
| 2026-04-22 12:38 | -8.73665 | 115.45575 | 11574 ft | 320 kts | 86° |
| 2026-04-22 12:38 | -8.73556 | 115.48106 | 12282 ft | 331 kts | 85° |
| 2026-04-22 12:38 | -8.73075 | 115.50611 | 13159 ft | 334 kts | 67° |
| 2026-04-22 12:39 | -8.71734 | 115.52805 | 14040 ft | 337 kts | 48° |
| 2026-04-22 12:39 | -8.68049 | 115.56476 | 15755 ft | 345 kts | 44° |
| 2026-04-22 12:39 | -8.66131 | 115.58347 | 16564 ft | 349 kts | 44° |
| 2026-04-22 12:40 | -8.64225 | 115.60229 | 17351 ft | 353 kts | 44° |
| 2026-04-22 12:40 | -8.62288 | 115.62161 | 18122 ft | 357 kts | 44° |
| 2026-04-22 12:40 | -8.60351 | 115.64100 | 18863 ft | 362 kts | 44° |
| 2026-04-22 12:40 | -8.58381 | 115.66077 | 19567 ft | 366 kts | 44° |
| 2026-04-22 12:41 | -8.55717 | 115.68767 | 20489 ft | 372 kts | 44° |
| 2026-04-22 12:41 | -8.54337 | 115.70105 | 20938 ft | 375 kts | 43° |
| 2026-04-22 12:41 | -8.52204 | 115.72082 | 21602 ft | 379 kts | 42° |
| 2026-04-22 12:41 | -8.50073 | 115.74037 | 22232 ft | 383 kts | 42° |
| 2026-04-22 12:42 | -8.47878 | 115.76047 | 22854 ft | 388 kts | 42° |
| 2026-04-22 12:42 | -8.45659 | 115.78076 | 23463 ft | 392 kts | 42° |
| 2026-04-22 12:42 | -8.43440 | 115.80105 | 24040 ft | 396 kts | 42° |
| 2026-04-22 12:42 | -8.41188 | 115.82164 | 24617 ft | 399 kts | 42° |
| 2026-04-22 12:43 | -8.38919 | 115.84238 | 25199 ft | 402 kts | 42° |
| 2026-04-22 12:43 | -8.36638 | 115.86324 | 25738 ft | 406 kts | 42° |
| 2026-04-22 12:43 | -8.34336 | 115.88427 | 26254 ft | 409 kts | 42° |
| 2026-04-22 12:43 | -8.32015 | 115.90547 | 26754 ft | 412 kts | 42° |
| 2026-04-22 12:44 | -8.29655 | 115.92703 | 27241 ft | 416 kts | 42° |
| 2026-04-22 12:44 | -8.27305 | 115.94851 | 27717 ft | 418 kts | 42° |
| 2026-04-22 12:44 | -8.24941 | 115.97009 | 28329 ft | 418 kts | 42° |
| 2026-04-22 12:44 | -8.22575 | 115.99169 | 29019 ft | 415 kts | 42° |
| 2026-04-22 12:45 | -8.20242 | 116.01299 | 29622 ft | 414 kts | 42° |
| 2026-04-22 12:45 | -8.17885 | 116.03450 | 30097 ft | 416 kts | 43° |
| 2026-04-22 12:45 | -8.15528 | 116.05602 | 30521 ft | 418 kts | 43° |
| 2026-04-22 12:45 | -8.13156 | 116.07766 | 30849 ft | 422 kts | 43° |
| 2026-04-22 12:46 | -8.10722 | 116.09987 | 30881 ft | 433 kts | 43° |
| 2026-04-22 12:46 | -8.05703 | 116.14567 | 30896 ft | 453 kts | 43° |
| 2026-04-22 12:47 | -8.00480 | 116.19331 | 30902 ft | 469 kts | 43° |
| 2026-04-22 12:47 | -7.95129 | 116.24208 | 30903 ft | 476 kts | 43° |
| 2026-04-22 12:48 | -7.89712 | 116.29142 | 30903 ft | 477 kts | 43° |
| 2026-04-22 12:48 | -7.84276 | 116.34064 | 30902 ft | 477 kts | 42° |
| 2026-04-22 12:49 | -7.78858 | 116.38978 | 30902 ft | 477 kts | 43° |
| 2026-04-22 12:49 | -7.73447 | 116.43897 | 30902 ft | 477 kts | 43° |
| 2026-04-22 12:50 | -7.68022 | 116.48833 | 30902 ft | 477 kts | 43° |
| 2026-04-22 12:50 | -7.62624 | 116.53742 | 30902 ft | 477 kts | 43° |
| 2026-04-22 12:51 | -7.57216 | 116.58659 | 30902 ft | 477 kts | 43° |
| 2026-04-22 12:51 | -7.51889 | 116.63615 | 30903 ft | 476 kts | 45° |
| 2026-04-22 12:52 | -7.46990 | 116.69093 | 30904 ft | 476 kts | 50° |
| 2026-04-22 12:52 | -7.42327 | 116.74709 | 30902 ft | 476 kts | 50° |
| 2026-04-22 12:53 | -7.37653 | 116.80316 | 30904 ft | 476 kts | 50° |
| 2026-04-22 12:53 | -7.32957 | 116.85925 | 30902 ft | 475 kts | 50° |
| 2026-04-22 12:54 | -7.28270 | 116.91513 | 30902 ft | 475 kts | 50° |
| 2026-04-22 12:54 | -7.23588 | 116.97093 | 30901 ft | 476 kts | 50° |
| 2026-04-22 12:55 | -7.18870 | 117.02712 | 30897 ft | 476 kts | 50° |
| 2026-04-22 12:55 | -7.14200 | 117.08272 | 30891 ft | 476 kts | 50° |
| 2026-04-22 12:56 | -7.09498 | 117.13868 | 30884 ft | 476 kts | 50° |
| 2026-04-22 12:56 | -7.04792 | 117.19466 | 30880 ft | 476 kts | 50° |
| 2026-04-22 12:57 | -7.00066 | 117.25086 | 30878 ft | 476 kts | 50° |
| 2026-04-22 12:57 | -6.95387 | 117.30649 | 30878 ft | 475 kts | 50° |
| 2026-04-22 12:58 | -6.90675 | 117.36247 | 30878 ft | 475 kts | 50° |
| 2026-04-22 12:58 | -6.85959 | 117.41822 | 30878 ft | 475 kts | 50° |
| 2026-04-22 12:59 | -6.81271 | 117.47362 | 30878 ft | 475 kts | 50° |
| 2026-04-22 12:59 | -6.76567 | 117.52944 | 30878 ft | 476 kts | 50° |
| 2026-04-22 13:00 | -6.71875 | 117.58515 | 30878 ft | 476 kts | 50° |
| 2026-04-22 13:00 | -6.67000 | 117.63956 | 30876 ft | 476 kts | 45° |
| 2026-04-22 13:01 | -6.61681 | 117.68982 | 30879 ft | 476 kts | 43° |
| 2026-04-22 13:01 | -6.56321 | 117.73944 | 30878 ft | 476 kts | 43° |
| 2026-04-22 13:02 | -6.50982 | 117.78879 | 30878 ft | 476 kts | 43° |
| 2026-04-22 13:02 | -6.45622 | 117.83833 | 30878 ft | 476 kts | 43° |
| 2026-04-22 13:03 | -6.40264 | 117.88783 | 30878 ft | 476 kts | 43° |
| 2026-04-22 13:03 | -6.34902 | 117.93735 | 30878 ft | 476 kts | 43° |
| 2026-04-22 13:04 | -6.29544 | 117.98683 | 30878 ft | 475 kts | 43° |
| 2026-04-22 13:04 | -6.24223 | 118.03595 | 30878 ft | 475 kts | 43° |
| 2026-04-22 13:05 | -6.18874 | 118.08532 | 30877 ft | 475 kts | 43° |
| 2026-04-22 13:05 | -6.14106 | 118.12930 | 30697 ft | 475 kts | 43° |
| 2026-04-22 13:05 | -6.11441 | 118.15388 | 30424 ft | 474 kts | 43° |
| 2026-04-22 13:06 | -6.08800 | 118.17824 | 30152 ft | 474 kts | 43° |
| 2026-04-22 13:06 | -6.06110 | 118.20303 | 29878 ft | 474 kts | 43° |
| 2026-04-22 13:06 | -6.02667 | 118.23476 | 29359 ft | 443 kts | 43° |
| 2026-04-22 13:06 | -6.01042 | 118.24972 | 29031 ft | 426 kts | 43° |
| 2026-04-22 13:07 | -5.98695 | 118.27134 | 28415 ft | 413 kts | 43° |
| 2026-04-22 13:07 | -5.96381 | 118.29266 | 27712 ft | 406 kts | 43° |
| 2026-04-22 13:07 | -5.94116 | 118.31354 | 27052 ft | 401 kts | 43° |
| 2026-04-22 13:07 | -5.91860 | 118.33431 | 26590 ft | 399 kts | 43° |
| 2026-04-22 13:08 | -5.88884 | 118.36169 | 25922 ft | 395 kts | 43° |
| 2026-04-22 13:08 | -5.87409 | 118.37518 | 25588 ft | 393 kts | 43° |
| 2026-04-22 13:08 | -5.85160 | 118.39576 | 25083 ft | 390 kts | 43° |
| 2026-04-22 13:08 | -5.82993 | 118.41566 | 24597 ft | 388 kts | 43° |
| 2026-04-22 13:09 | -5.80798 | 118.43584 | 24103 ft | 385 kts | 43° |
| 2026-04-22 13:09 | -5.78636 | 118.45577 | 23608 ft | 382 kts | 43° |
| 2026-04-22 13:09 | -5.76499 | 118.47551 | 23127 ft | 379 kts | 43° |
| 2026-04-22 13:09 | -5.74383 | 118.49506 | 22656 ft | 377 kts | 43° |
| 2026-04-22 13:10 | -5.72258 | 118.51469 | 22175 ft | 374 kts | 43° |
| 2026-04-22 13:10 | -5.70168 | 118.53401 | 21724 ft | 370 kts | 43° |
| 2026-04-22 13:10 | -5.68100 | 118.55311 | 21262 ft | 367 kts | 43° |
| 2026-04-22 13:10 | -5.65350 | 118.57851 | 20621 ft | 364 kts | 43° |
| 2026-04-22 13:11 | -5.64015 | 118.59084 | 20316 ft | 362 kts | 43° |
| 2026-04-22 13:11 | -5.61982 | 118.60961 | 19837 ft | 359 kts | 43° |
| 2026-04-22 13:11 | -5.59983 | 118.62807 | 19365 ft | 356 kts | 43° |
| 2026-04-22 13:11 | -5.57977 | 118.64659 | 18893 ft | 353 kts | 43° |
| 2026-04-22 13:12 | -5.55337 | 118.67107 | 18262 ft | 350 kts | 43° |
| 2026-04-22 13:12 | -5.54038 | 118.68317 | 17954 ft | 348 kts | 43° |
| 2026-04-22 13:12 | -5.52084 | 118.70130 | 17480 ft | 345 kts | 43° |
| 2026-04-22 13:12 | -5.50159 | 118.71912 | 16992 ft | 343 kts | 43° |
| 2026-04-22 13:13 | -5.48232 | 118.73692 | 16507 ft | 341 kts | 43° |
| 2026-04-22 13:13 | -5.46322 | 118.75455 | 16017 ft | 340 kts | 43° |
| 2026-04-22 13:13 | -5.43794 | 118.77788 | 15381 ft | 337 kts | 43° |
| 2026-04-22 13:13 | -5.42538 | 118.78945 | 15058 ft | 335 kts | 43° |
| 2026-04-22 13:14 | -5.40634 | 118.80701 | 14578 ft | 333 kts | 43° |
| 2026-04-22 13:14 | -5.38778 | 118.82411 | 14109 ft | 331 kts | 43° |
| 2026-04-22 13:14 | -5.36281 | 118.84712 | 13483 ft | 329 kts | 43° |
| 2026-04-22 13:14 | -5.35047 | 118.85850 | 13286 ft | 324 kts | 43° |
| 2026-04-22 13:15 | -5.33270 | 118.87488 | 13213 ft | 309 kts | 43° |
| 2026-04-22 13:15 | -5.31581 | 118.89044 | 13122 ft | 296 kts | 43° |
| 2026-04-22 13:15 | -5.30068 | 118.90671 | 12997 ft | 283 kts | 59° |
| 2026-04-22 13:15 | -5.29397 | 118.93404 | 12572 ft | 279 kts | 88° |
| 2026-04-22 13:16 | -5.29409 | 118.94842 | 12299 ft | 278 kts | 90° |
| 2026-04-22 13:16 | -5.29446 | 118.96957 | 11899 ft | 276 kts | 89° |
| 2026-04-22 13:16 | -5.29473 | 118.99086 | 11517 ft | 274 kts | 89° |
| 2026-04-22 13:16 | -5.29488 | 119.01875 | 11014 ft | 271 kts | 89° |
| 2026-04-22 13:17 | -5.29489 | 119.03256 | 10765 ft | 270 kts | 89° |
| 2026-04-22 13:17 | -5.29485 | 119.06014 | 10244 ft | 268 kts | 89° |
| 2026-04-22 13:17 | -5.29482 | 119.07381 | 10001 ft | 266 kts | 89° |
| 2026-04-22 13:17 | -5.29475 | 119.09418 | 9631 ft | 264 kts | 89° |
| 2026-04-22 13:18 | -5.29466 | 119.12092 | 9146 ft | 261 kts | 89° |
| 2026-04-22 13:18 | -5.29458 | 119.14095 | 8783 ft | 259 kts | 89° |
| 2026-04-22 13:18 | -5.29452 | 119.15430 | 8543 ft | 257 kts | 89° |
| 2026-04-22 13:18 | -5.29442 | 119.18038 | 8091 ft | 254 kts | 89° |
| 2026-04-22 13:19 | -5.29433 | 119.19976 | 7753 ft | 251 kts | 89° |
| 2026-04-22 13:19 | -5.29427 | 119.21253 | 7538 ft | 248 kts | 89° |
| 2026-04-22 13:19 | -5.29417 | 119.23144 | 7197 ft | 246 kts | 89° |
| 2026-04-22 13:19 | -5.29409 | 119.25015 | 6872 ft | 243 kts | 89° |
| 2026-04-22 13:20 | -5.29401 | 119.26872 | 6546 ft | 241 kts | 89° |
| 2026-04-22 13:20 | -5.29390 | 119.29307 | 6124 ft | 237 kts | 89° |
| 2026-04-22 13:20 | -5.29382 | 119.31132 | 5810 ft | 234 kts | 89° |
| 2026-04-22 13:20 | -5.29376 | 119.32329 | 5606 ft | 232 kts | 89° |
| 2026-04-22 13:21 | -5.29364 | 119.34690 | 5189 ft | 228 kts | 89° |
| 2026-04-22 13:21 | -5.29358 | 119.35831 | 4984 ft | 226 kts | 89° |
| 2026-04-22 13:21 | -5.29349 | 119.38155 | 4596 ft | 222 kts | 89° |
| 2026-04-22 13:21 | -5.29342 | 119.39822 | 4363 ft | 216 kts | 89° |
| 2026-04-22 13:22 | -5.29336 | 119.40927 | 4188 ft | 213 kts | 89° |
| 2026-04-22 13:22 | -5.28852 | 119.42989 | 3822 ft | 208 kts | 51° |
| 2026-04-22 13:22 | -5.27631 | 119.43958 | 3573 ft | 204 kts | 30° |
| 2026-04-22 13:22 | -5.26268 | 119.44690 | 3398 ft | 196 kts | 29° |
| 2026-04-22 13:23 | -5.24966 | 119.45386 | 3123 ft | 191 kts | 30° |
| 2026-04-22 13:23 | -5.23710 | 119.46079 | 2863 ft | 186 kts | 30° |
| 2026-04-22 13:23 | -5.22475 | 119.46777 | 2609 ft | 180 kts | 31° |
| 2026-04-22 13:23 | -5.21314 | 119.47443 | 2444 ft | 167 kts | 31° |
| 2026-04-22 13:24 | -5.20260 | 119.48051 | 2344 ft | 156 kts | 31° |
| 2026-04-22 13:24 | -5.19223 | 119.48650 | 2277 ft | 156 kts | 31° |
| 2026-04-22 13:24 | -5.18183 | 119.49249 | 2138 ft | 156 kts | 31° |
| 2026-04-22 13:24 | -5.17145 | 119.49837 | 1885 ft | 155 kts | 31° |
| 2026-04-22 13:25 | -5.16120 | 119.50425 | 1609 ft | 151 kts | 31° |
| 2026-04-22 13:25 | -5.15124 | 119.51000 | 1393 ft | 150 kts | 30° |
| 2026-04-22 13:25 | -5.14127 | 119.51576 | 1176 ft | 149 kts | 30° |
| 2026-04-22 13:25 | -5.13139 | 119.52146 | 962 ft | 148 kts | 30° |
| 2026-04-22 13:26 | -5.12155 | 119.52699 | 758 ft | 148 kts | 30° |
| 2026-04-22 13:26 | -5.11184 | 119.53268 | 524 ft | 147 kts | 31° |
| 2026-04-22 13:26 | -5.10214 | 119.53834 | 302 ft | 147 kts | 30° |
| 2026-04-22 13:26 | -5.09238 | 119.54392 | 96 ft | 146 kts | 30° |
| 2026-04-22 13:27 | -5.08304 | 119.54937 | 52 ft | 126 kts | 29° |
| 2026-04-22 13:27 | -5.07754 | 119.55254 | 52 ft | 40 kts | 30° |
| 2026-04-22 13:27 | -5.07613 | 119.55335 | 52 ft | 25 kts | 30° |
| 2026-04-22 13:27 | -5.07385 | 119.55424 | 52 ft | 23 kts | 7° |
| 2026-04-22 13:28 | -5.07285 | 119.55429 | 52 ft | 12 kts | 0° |
| 2026-04-22 13:28 | -5.07208 | 119.55421 | 52 ft | 7 kts | 326° |
| 2026-04-22 13:28 | -5.07214 | 119.55367 | 52 ft | 8 kts | 229° |
| 2026-04-22 13:28 | -5.07274 | 119.55328 | 52 ft | 11 kts | 210° |
| 2026-04-22 13:29 | -5.07355 | 119.55281 | 52 ft | 12 kts | 210° |
| 2026-04-22 13:29 | -5.07442 | 119.55231 | 52 ft | 12 kts | 210° |
| 2026-04-22 13:29 | -5.07509 | 119.55193 | 52 ft | 10 kts | 210° |
| 2026-04-22 13:29 | -5.07569 | 119.55157 | 52 ft | 7 kts | 210° |
| 2026-04-22 13:30 | -5.07583 | 119.55149 | 52 ft | 4 kts | 210° |
| 2026-04-22 13:30 | -5.07609 | 119.55132 | 52 ft | 9 kts | 224° |
| 2026-04-22 13:30 | -5.07602 | 119.55058 | 52 ft | 7 kts | 300° |
| 2026-04-22 13:30 | -5.07577 | 119.55009 | 52 ft | 6 kts | 281° |
| 2026-04-22 13:31 | -5.07583 | 119.54964 | 52 ft | 6 kts | 260° |
| 2026-04-22 13:31 | -5.07590 | 119.54933 | 52 ft | 7 kts | 253° |
| 2026-04-22 13:31 | -5.07631 | 119.54893 | 52 ft | 4 kts | 208° |
| 2026-04-22 13:31 | -5.07664 | 119.54875 | 52 ft | 4 kts | 209° |
| 2026-04-22 13:32 | -5.07682 | 119.54864 | 52 ft | 0 kts | 210° |
| 2026-04-22 13:32 | -5.07687 | 119.54858 | 52 ft | 1 kts | 255° |
| 2026-04-22 13:32 | -5.07679 | 119.54841 | 52 ft | 4 kts | 300° |
| 2026-04-22 13:32 | -5.07668 | 119.54822 | 52 ft | 4 kts | 300° |
| 2026-04-22 13:33 | -5.07655 | 119.54798 | 52 ft | 0 kts | 300° |